Dawn Merchant — MYIL6 — position and weather

sailwx.info

Track history (hours):
 
Tides and Currents Weather Stations Pressure Air Temp Water Temp Dewpoint Dewpoint Depression Visibility Wind Speed Wind Dir Waves Ship Positions

Dawn Merchant

Operator: Norfolk Line

Last reported at 2019-Jan-24 07:31 UTC. Time now 2019-Jan-24 07:32 UTC.
Position S 41°17' E 174°00'.

Length 180 m; draft 6 m.

Type: Passenger vessel. MMSI: 232197000.

Date/timePositionNaut miles runAvg speedWind from/ knotsBaromVisibWave heightAir tempDewpointWater temp
2019-Jan-24 07:31S 41°17' E 174°00'2 4.0
2019-Jan-24 07:00S 41°15' E 174°02'611.9
2019-Jan-24 06:31S 41°14' E 174°09'713.4
2019-Jan-24 06:00S 41°13' E 174°18'918.3
2019-Jan-24 05:30S 41°18' E 174°28'816.7
2019-Jan-24 05:00S 41°23' E 174°37'713.3
2019-Jan-24 04:31S 41°23' E 174°46'812.6
2019-Jan-24 03:55S 41°16' E 174°49'1 0.2
2019-Jan-23 23:32S 41°16' E 174°47'110.3
2019-Jan-23 23:27S 41°16' E 174°49'613.4
2019-Jan-23 23:00S 41°22' E 174°50'713.1
2019-Jan-23 22:30S 41°24' E 174°42'713.5
2019-Jan-23 22:01S 41°21' E 174°34'815.3
2019-Jan-23 21:31S 41°17' E 174°25'713.2
2019-Jan-23 21:00S 41°13' E 174°18'612.1
2019-Jan-23 20:30S 41°15' E 174°10'612.2
2019-Jan-23 20:00S 41°15' E 174°02'2 4.0
2019-Jan-23 19:30S 41°17' E 174°00'0 0.0
2019-Jan-23 19:00S 41°17' E 174°00'0 0.0
2019-Jan-23 18:30S 41°17' E 174°00'0 0.0
2019-Jan-23 18:00S 41°17' E 174°00'2 4.3
2019-Jan-23 17:31S 41°15' E 174°02'611.8
2019-Jan-23 17:01S 41°15' E 174°10'713.9
2019-Jan-23 16:31S 41°13' E 174°18'917.7
2019-Jan-23 16:00S 41°17' E 174°28'815.2
2019-Jan-23 15:31S 41°21' E 174°37'815.1
2019-Jan-23 15:00S 41°22' E 174°47'611.3
2019-Jan-23 14:27S 41°16' E 174°48'1 0.3
2019-Jan-23 12:23S 41°16' E 174°47'610.8
2019-Jan-23 11:50S 41°22' E 174°50'514.9
2019-Jan-23 11:31S 41°23' E 174°44'815.6
2019-Jan-23 11:01S 41°21' E 174°34'815.3
2019-Jan-23 10:31S 41°17' E 174°26'714.1
2019-Jan-23 10:01S 41°13' E 174°18'713.6
2019-Jan-23 09:30S 41°15' E 174°09'612.2
2019-Jan-23 09:00S 41°16' E 174°01'2 3.0
2019-Jan-23 08:29S 41°17' E 174°00'0 0.0
2019-Jan-23 07:59S 41°17' E 174°00'0 0.0
2019-Jan-23 07:29S 41°17' E 174°00'0 0.3
2019-Jan-23 06:59S 41°17' E 174°01'4 9.3
2019-Jan-23 06:30S 41°14' E 174°05'612.3
2019-Jan-23 06:00S 41°14' E 174°13'714.4
2019-Jan-23 05:30S 41°15' E 174°23'917.1
2019-Jan-23 05:00S 41°19' E 174°32'917.2
2019-Jan-23 04:30S 41°23' E 174°43'814.9
2019-Jan-23 03:58S 41°17' E 174°51'3 0.6
2019-Jan-22 23:18S 41°16' E 174°47'311.0
2019-Jan-22 23:00S 41°17' E 174°51'714.8
2019-Jan-22 22:30S 41°24' E 174°47'816.2
2019-Jan-22 22:00S 41°22' E 174°36'816.8
2019-Jan-22 21:30S 41°17' E 174°27'816.2
2019-Jan-22 21:00S 41°13' E 174°17'612.4
2019-Jan-22 20:30S 41°14' E 174°09'612.8
2019-Jan-22 20:00S 41°16' E 174°01'1 1.9
2019-Jan-22 19:29S 41°17' E 174°00'0 0.0
2019-Jan-22 18:59S 41°17' E 174°00'0 0.0
2019-Jan-22 18:29S 41°17' E 174°00'0 0.0
2019-Jan-22 17:59S 41°17' E 174°00'2 4.0
2019-Jan-22 17:30S 41°15' E 174°02'612.4
2019-Jan-22 17:01S 41°15' E 174°10'714.8
2019-Jan-22 16:30S 41°13' E 174°19'917.6
2019-Jan-22 16:00S 41°18' E 174°29'713.9
2019-Jan-22 15:30S 41°21' E 174°37'815.3
2019-Jan-22 15:00S 41°22' E 174°47'612.2
2019-Jan-22 14:30S 41°17' E 174°49'2 0.8
2019-Jan-22 12:22S 41°16' E 174°47'411.0
2019-Jan-22 11:59S 41°19' E 174°51'613.0
2019-Jan-22 11:31S 41°23' E 174°45'917.1
2019-Jan-22 11:01S 41°21' E 174°34'816.1
2019-Jan-22 10:31S 41°17' E 174°25'714.0
2019-Jan-22 10:01S 41°13' E 174°17'612.5
2019-Jan-22 09:31S 41°14' E 174°09'713.7
2019-Jan-22 09:01S 41°17' E 174°01'0 0.9
2019-Jan-22 08:31S 41°17' E 174°00'0 0.0
2019-Jan-22 08:01S 41°17' E 174°00'0 0.0
2019-Jan-22 07:31S 41°17' E 174°00'0 0.1
2019-Jan-22 07:00S 41°17' E 174°00'5 9.4
2019-Jan-22 06:31S 41°14' E 174°05'713.2
2019-Jan-22 06:01S 41°14' E 174°14'714.4
2019-Jan-22 05:31S 41°15' E 174°24'816.1
2019-Jan-22 05:01S 41°19' E 174°33'917.7
2019-Jan-22 04:31S 41°23' E 174°43'814.3
2019-Jan-22 03:58S 41°18' E 174°51'3 0.7
2019-Jan-21 23:11S 41°16' E 174°47'1 8.2
2019-Jan-21 23:00S 41°16' E 174°49'714.4
2019-Jan-21 22:30S 41°23' E 174°49'917.9
2019-Jan-21 22:01S 41°22' E 174°37'917.8
2019-Jan-21 21:31S 41°17' E 174°27'816.5
2019-Jan-21 21:01S 41°13' E 174°18'713.6
2019-Jan-21 20:30S 41°14' E 174°09'612.6
2019-Jan-21 20:00S 41°16' E 174°01'1 2.0
2019-Jan-21 19:30S 41°17' E 174°00'0 0.0
2019-Jan-21 19:00S 41°17' E 174°00'0 0.0
2019-Jan-21 18:30S 41°17' E 174°00'0 0.0
2019-Jan-21 18:00S 41°17' E 174°00'0 0.3
2019-Jan-21 17:31S 41°17' E 174°01'511.0
2019-Jan-21 17:01S 41°14' E 174°07'713.4
2019-Jan-21 16:31S 41°14' E 174°15'714.2
2019-Jan-21 16:01S 41°16' E 174°25'815.6
2019-Jan-21 15:31S 41°20' E 174°33'816.3
2019-Jan-21 15:01S 41°23' E 174°43'812.0
2019-Jan-21 14:21S 41°17' E 174°50'2 0.9
2019-Jan-21 12:16S 41°16' E 174°47'310.5
2019-Jan-21 12:00S 41°17' E 174°51'714.6
2019-Jan-21 11:30S 41°24' E 174°48'918.1
2019-Jan-21 11:00S 41°22' E 174°36'917.4
2019-Jan-21 10:30S 41°17' E 174°27'816.1
2019-Jan-21 10:00S 41°13' E 174°18'713.3
2019-Jan-21 09:31S 41°14' E 174°09'713.8
2019-Jan-21 09:00S 41°17' E 174°01'0 0.7
2019-Jan-21 08:30S 41°17' E 174°00'0 0.0
2019-Jan-21 08:00S 41°17' E 174°00'0 0.0
2019-Jan-21 07:30S 41°17' E 174°00'0 0.2
2019-Jan-21 07:00S 41°17' E 174°00'510.2
2019-Jan-21 06:30S 41°14' E 174°06'713.1
2019-Jan-21 06:00S 41°14' E 174°15'713.9
2019-Jan-21 05:30S 41°15' E 174°24'816.4
2019-Jan-21 05:00S 41°19' E 174°33'918.0
2019-Jan-21 04:30S 41°23' E 174°44'712.9
2019-Jan-21 03:56S 41°17' E 174°50'2 0.6
2019-Jan-21 01:06S 41°16' E 174°48'1 6.8
2019-Jan-21 00:56S 41°16' E 174°49'613.6
2019-Jan-21 00:30S 41°22' E 174°50'816.8
2019-Jan-21 00:00S 41°23' E 174°39'1019.8
2019-Jan-20 23:30S 41°18' E 174°28'917.5
2019-Jan-20 23:01S 41°13' E 174°18'714.1
2019-Jan-20 22:31S 41°14' E 174°09'713.9
2019-Jan-20 22:00S 41°17' E 174°01'0 0.6
2019-Jan-20 21:30S 41°17' E 174°00'0 0.0
2019-Jan-20 21:00S 41°17' E 174°00'0 0.0
2019-Jan-20 20:30S 41°17' E 174°00'1 1.5
2019-Jan-20 20:00S 41°16' E 174°01'713.9
2019-Jan-20 19:31S 41°14' E 174°09'713.4
2019-Jan-20 19:01S 41°13' E 174°18'815.5
2019-Jan-20 18:30S 41°17' E 174°27'917.1
2019-Jan-20 18:00S 41°21' E 174°37'918.3
2019-Jan-20 17:30S 41°22' E 174°49'611.2
2019-Jan-20 16:57S 41°16' E 174°47'0 0.0
2019-Jan-20 14:55S 41°16' E 174°47'4 9.3
2019-Jan-20 14:28S 41°19' E 174°51'613.0
2019-Jan-20 14:01S 41°23' E 174°46'816.3
2019-Jan-20 13:30S 41°21' E 174°35'917.8
2019-Jan-20 13:01S 41°17' E 174°25'714.3
2019-Jan-20 12:30S 41°14' E 174°17'713.2
2019-Jan-20 12:00S 41°14' E 174°08'713.1
2019-Jan-20 11:31S 41°17' E 174°00'0 0.1
2019-Jan-20 11:00S 41°17' E 174°00'0 0.0
2019-Jan-20 10:30S 41°17' E 174°00'3 5.8
2019-Jan-20 10:01S 41°15' E 174°03'612.6
2019-Jan-20 09:30S 41°15' E 174°11'612.8
2019-Jan-20 09:00S 41°13' E 174°19'815.3
2019-Jan-20 08:30S 41°17' E 174°28'816.2
2019-Jan-20 08:00S 41°21' E 174°37'917.0
2019-Jan-20 07:30S 41°22' E 174°48'612.0
2019-Jan-20 06:59S 41°16' E 174°48'0 0.1
2019-Jan-20 05:42S 41°16' E 174°47'1 3.8
2019-Jan-20 05:26S 41°16' E 174°49'2 3.7
2019-Jan-20 04:58S 41°15' E 174°51'1 2.3
2019-Jan-20 04:29S 41°16' E 174°50'2 0.2
2019-Jan-19 20:01S 41°16' E 174°47'0 5.3
2019-Jan-19 19:59S 41°16' E 174°47'2 2.5
2019-Jan-19 19:12S 41°15' E 174°50'0 0.0
2019-Jan-19 16:42S 41°15' E 174°50'0 0.0
2019-Jan-19 16:07S 41°15' E 174°50'0 0.0
2019-Jan-19 15:55S 41°15' E 174°50'0 0.1
2019-Jan-19 15:30S 41°15' E 174°50'2 0.6
2019-Jan-19 12:26S 41°16' E 174°47'4 8.7
2019-Jan-19 11:57S 41°19' E 174°51'612.6
2019-Jan-19 11:30S 41°23' E 174°46'917.6
2019-Jan-19 11:00S 41°21' E 174°35'917.3
2019-Jan-19 10:30S 41°17' E 174°25'714.3
2019-Jan-19 10:00S 41°14' E 174°17'713.5
2019-Jan-19 09:30S 41°14' E 174°08'612.6
2019-Jan-19 09:00S 41°17' E 174°00'0 0.0
2019-Jan-19 08:31S 41°17' E 174°00'0 0.0
2019-Jan-19 08:00S 41°17' E 174°00'0 0.0
2019-Jan-19 07:30S 41°17' E 174°00'0 0.3
2019-Jan-19 07:00S 41°17' E 174°00'713.1
2019-Jan-19 06:30S 41°14' E 174°08'612.3
2019-Jan-19 06:00S 41°14' E 174°16'713.5
2019-Jan-19 05:30S 41°16' E 174°25'815.8
2019-Jan-19 05:00S 41°20' E 174°34'917.6
2019-Jan-19 04:30S 41°23' E 174°45'711.4
2019-Jan-19 03:53S 41°16' E 174°48'1 0.1
2019-Jan-18 23:00S 41°16' E 174°47'611.1
2019-Jan-18 22:28S 41°22' E 174°50'714.7
2019-Jan-18 22:00S 41°23' E 174°42'918.4
2019-Jan-18 21:30S 41°19' E 174°30'917.1
2019-Jan-18 21:00S 41°14' E 174°21'714.1
2019-Jan-18 20:30S 41°15' E 174°12'713.0
2019-Jan-18 20:00S 41°15' E 174°03'3 6.0
2019-Jan-18 19:30S 41°17' E 174°00'0 0.0
2019-Jan-18 19:00S 41°17' E 174°00'0 0.0
2019-Jan-18 18:30S 41°17' E 174°00'0 0.0
2019-Jan-18 18:00S 41°17' E 174°00'0 0.7
2019-Jan-18 17:31S 41°17' E 174°01'713.0
2019-Jan-18 17:00S 41°14' E 174°08'713.1
2019-Jan-18 16:30S 41°13' E 174°17'714.3
2019-Jan-18 16:00S 41°16' E 174°26'816.8
2019-Jan-18 15:30S 41°21' E 174°35'918.2
2019-Jan-18 15:00S 41°22' E 174°47'611.5
2019-Jan-18 14:27S 41°16' E 174°48'1 0.3
2019-Jan-18 12:17S 41°16' E 174°47'311.1
2019-Jan-18 12:00S 41°17' E 174°51'714.7
2019-Jan-18 11:30S 41°23' E 174°47'917.7
2019-Jan-18 11:00S 41°22' E 174°35'918.0
2019-Jan-18 10:30S 41°17' E 174°25'714.4
2019-Jan-18 10:00S 41°14' E 174°17'713.5
2019-Jan-18 09:30S 41°14' E 174°08'612.7
2019-Jan-18 09:00S 41°17' E 174°00'0 0.0
2019-Jan-18 08:30S 41°17' E 174°00'0 0.0
2019-Jan-18 08:00S 41°17' E 174°00'0 0.0
2019-Jan-18 07:30S 41°17' E 174°00'0 0.0
2019-Jan-18 07:00S 41°17' E 174°00'4 8.9
2019-Jan-18 06:31S 41°14' E 174°05'612.7
2019-Jan-18 06:00S 41°14' E 174°13'713.7
2019-Jan-18 05:31S 41°15' E 174°23'917.1
2019-Jan-18 05:00S 41°19' E 174°32'919.0
2019-Jan-18 04:31S 41°23' E 174°44'7 1.3
2019-Jan-17 22:58S 41°16' E 174°47'611.7
2019-Jan-17 22:28S 41°22' E 174°50'816.5
2019-Jan-17 22:00S 41°23' E 174°40'1019.9
2019-Jan-17 21:30S 41°18' E 174°29'917.6
2019-Jan-17 21:00S 41°13' E 174°19'815.6
2019-Jan-17 20:31S 41°15' E 174°09'612.3
2019-Jan-17 20:00S 41°16' E 174°01'1 2.8
2019-Jan-17 19:30S 41°17' E 174°00'0 0.0
2019-Jan-17 19:00S 41°17' E 174°00'0 0.0
2019-Jan-17 18:30S 41°17' E 174°00'0 0.0
2019-Jan-17 18:01S 41°17' E 174°00'1 2.2
2019-Jan-17 17:30S 41°16' E 174°01'713.1
2019-Jan-17 17:00S 41°14' E 174°09'713.4
2019-Jan-17 16:31S 41°13' E 174°18'917.2
2019-Jan-17 16:00S 41°17' E 174°28'1019.0
2019-Jan-17 15:30S 41°22' E 174°39'9 2.8
2019-Jan-17 12:13S 41°16' E 174°47'312.8
2019-Jan-17 12:00S 41°17' E 174°51'714.8
2019-Jan-17 11:30S 41°23' E 174°48'917.8
2019-Jan-17 11:01S 41°22' E 174°36'918.3
2019-Jan-17 10:30S 41°17' E 174°26'815.2
2019-Jan-17 10:01S 41°14' E 174°17'713.4
2019-Jan-17 09:30S 41°14' E 174°08'612.6
2019-Jan-17 09:00S 41°17' E 174°00'0 0.0
2019-Jan-17 08:30S 41°17' E 174°00'0 0.0
2019-Jan-17 08:00S 41°17' E 174°00'0 0.0
2019-Jan-17 07:30S 41°17' E 174°00'1 1.3
2019-Jan-17 07:01S 41°16' E 174°01'713.9
2019-Jan-17 06:31S 41°14' E 174°09'611.6
2019-Jan-17 06:01S 41°13' E 174°17'816.3
2019-Jan-17 05:31S 41°17' E 174°27'1019.5
2019-Jan-17 05:01S 41°22' E 174°38'1016.7
2019-Jan-17 04:23S 41°19' E 174°51'4 0.7
2019-Jan-16 23:01S 41°16' E 174°48'112.1
2019-Jan-16 22:59S 41°16' E 174°49'714.2
2019-Jan-16 22:30S 41°23' E 174°50'917.4
2019-Jan-16 22:00S 41°23' E 174°38'918.2
2019-Jan-16 21:30S 41°18' E 174°28'917.3
2019-Jan-16 21:01S 41°13' E 174°19'815.0
2019-Jan-16 20:30S 41°14' E 174°09'612.6
2019-Jan-16 20:00S 41°16' E 174°01'1 2.1
2019-Jan-16 19:28S 41°17' E 174°00'0 0.0
2019-Jan-16 18:58S 41°17' E 174°00'0 0.0
2019-Jan-16 18:28S 41°17' E 174°00'0 0.0
2019-Jan-16 18:00S 41°17' E 174°00'1 2.7
2019-Jan-16 17:31S 41°16' E 174°01'612.7
2019-Jan-16 17:01S 41°14' E 174°09'713.8
2019-Jan-16 16:31S 41°13' E 174°18'917.3
2019-Jan-16 16:00S 41°17' E 174°28'1019.1
2019-Jan-16 15:31S 41°22' E 174°39'910.6
2019-Jan-16 14:38S 41°16' E 174°48'1 0.3
2019-Jan-16 12:19S 41°16' E 174°47'411.0
2019-Jan-16 11:56S 41°19' E 174°51'613.7
2019-Jan-16 11:30S 41°23' E 174°46'816.9
2019-Jan-16 11:00S 41°21' E 174°35'817.0
2019-Jan-16 10:30S 41°17' E 174°26'714.8
2019-Jan-16 10:00S 41°13' E 174°17'612.5
2019-Jan-16 09:31S 41°14' E 174°09'713.5
2019-Jan-16 09:00S 41°17' E 174°01'0 0.6
2019-Jan-16 08:30S 41°17' E 174°00'0 0.0
2019-Jan-16 08:00S 41°17' E 174°00'0 0.0
2019-Jan-16 07:30S 41°17' E 174°00'0 0.0
2019-Jan-16 07:00S 41°17' E 174°00'4 8.8
2019-Jan-16 06:30S 41°14' E 174°05'612.5
2019-Jan-16 06:00S 41°14' E 174°13'713.7
2019-Jan-16 05:30S 41°14' E 174°22'1019.8
2019-Jan-16 05:00S 41°19' E 174°34'1019.2
2019-Jan-16 04:30S 41°23' E 174°46'712.1
2019-Jan-16 03:57S 41°16' E 174°48'0 0.1
2019-Jan-15 23:01S 41°16' E 174°48'0 7.3
2019-Jan-15 23:00S 41°16' E 174°48'612.0
2019-Jan-15 22:30S 41°22' E 174°50'816.7
2019-Jan-15 22:00S 41°23' E 174°39'917.8
2019-Jan-15 21:31S 41°19' E 174°29'918.1
2019-Jan-15 21:01S 41°13' E 174°20'815.0
2019-Jan-15 20:30S 41°15' E 174°10'612.4
2019-Jan-15 20:01S 41°15' E 174°02'2 3.4
2019-Jan-15 19:29S 41°17' E 174°00'0 0.0
2019-Jan-15 18:59S 41°17' E 174°00'0 0.0
2019-Jan-15 18:29S 41°17' E 174°00'0 0.0
2019-Jan-15 18:00S 41°17' E 174°00'3 5.4
2019-Jan-15 17:31S 41°15' E 174°02'612.2
2019-Jan-15 17:00S 41°15' E 174°10'714.2
2019-Jan-15 16:30S 41°13' E 174°20'918.1
2019-Jan-15 16:00S 41°18' E 174°30'1019.6
2019-Jan-15 15:30S 41°23' E 174°41'916.1
2019-Jan-15 14:57S 41°17' E 174°51'3 1.5
2019-Jan-15 13:00S 41°16' E 174°47'612.5
2019-Jan-15 12:30S 41°22' E 174°50'815.2
2019-Jan-15 12:00S 41°23' E 174°40'816.2
2019-Jan-15 11:30S 41°19' E 174°31'917.7
2019-Jan-15 11:00S 41°14' E 174°21'611.8
2019-Jan-15 10:30S 41°14' E 174°13'612.3
2019-Jan-15 10:01S 41°14' E 174°05'4 8.7
2019-Jan-15 09:30S 41°17' E 174°00'0 0.0
2019-Jan-15 09:01S 41°17' E 174°00'0 0.0
2019-Jan-15 08:30S 41°17' E 174°00'0 0.3
2019-Jan-15 08:00S 41°17' E 174°01'3 5.3
2019-Jan-15 07:30S 41°15' E 174°03'5 9.0
2019-Jan-15 07:00S 41°14' E 174°08'611.6
2019-Jan-15 06:30S 41°14' E 174°16'714.8
2019-Jan-15 06:00S 41°16' E 174°25'1019.6
2019-Jan-15 05:30S 41°22' E 174°36'815.3
2019-Jan-15 05:00S 41°24' E 174°45'813.7
2019-Jan-15 04:24S 41°16' E 174°49'1 0.2
2019-Jan-14 23:26S 41°16' E 174°47'611.9
2019-Jan-14 22:56S 41°22' E 174°50'818.1
2019-Jan-14 22:31S 41°27' E 174°43'917.1
2019-Jan-14 22:01S 41°22' E 174°34'918.9
2019-Jan-14 21:31S 41°16' E 174°24'713.9
2019-Jan-14 21:01S 41°14' E 174°15'612.7
2019-Jan-14 20:31S 41°14' E 174°06'510.5
2019-Jan-14 20:00S 41°17' E 174°00'0 0.0
2019-Jan-14 19:31S 41°17' E 174°00'0 0.0
2019-Jan-14 19:01S 41°17' E 174°00'0 0.0
2019-Jan-14 18:31S 41°17' E 174°00'0 0.6
2019-Jan-14 18:01S 41°17' E 174°01'713.4
2019-Jan-14 17:30S 41°14' E 174°08'611.6
2019-Jan-14 17:00S 41°14' E 174°16'715.0
2019-Jan-14 16:31S 41°16' E 174°25'1019.5
2019-Jan-14 16:00S 41°22' E 174°36'713.9
2019-Jan-14 15:30S 41°24' E 174°45'814.7
2019-Jan-14 14:59S 41°18' E 174°51'3 1.4
2019-Jan-14 12:47S 41°16' E 174°47'312.6
2019-Jan-14 12:30S 41°18' E 174°51'917.9
2019-Jan-14 12:00S 41°25' E 174°45'612.3
2019-Jan-14 11:31S 41°23' E 174°37'713.4
2019-Jan-14 11:01S 41°20' E 174°30'714.4
2019-Jan-14 10:31S 41°15' E 174°22'510.8
2019-Jan-14 10:01S 41°14' E 174°15'612.3
2019-Jan-14 09:30S 41°14' E 174°07'611.0
2019-Jan-14 08:59S 41°17' E 174°00'0 0.0
2019-Jan-14 08:29S 41°17' E 174°00'0 0.0
2019-Jan-14 07:59S 41°17' E 174°00'  
Track history (hours):
 
Tides and Currents Weather Stations Pressure Air Temp Water Temp Dewpoint Dewpoint Depression Visibility Wind Speed Wind Dir Waves Ship Positions

Dawn Merchant

Operator: Norfolk Line

Last reported at 2019-Jan-24 07:31 UTC. Time now 2019-Jan-24 07:32 UTC.
Position S 41°17' E 174°00'.

Length 180 m; draft 6 m.

Type: Passenger vessel. MMSI: 232197000.

Date/timePositionNaut miles runAvg speedWind from/ knotsBaromVisibWave heightAir tempDewpointWater temp
2019-Jan-24 07:31S 41°17' E 174°00'2 4.0
2019-Jan-24 07:00S 41°15' E 174°02'611.9
2019-Jan-24 06:31S 41°14' E 174°09'713.4
2019-Jan-24 06:00S 41°13' E 174°18'918.3
2019-Jan-24 05:30S 41°18' E 174°28'816.7
2019-Jan-24 05:00S 41°23' E 174°37'713.3
2019-Jan-24 04:31S 41°23' E 174°46'812.6
2019-Jan-24 03:55S 41°16' E 174°49'1 0.2
2019-Jan-23 23:32S 41°16' E 174°47'110.3
2019-Jan-23 23:27S 41°16' E 174°49'613.4
2019-Jan-23 23:00S 41°22' E 174°50'713.1
2019-Jan-23 22:30S 41°24' E 174°42'713.5
2019-Jan-23 22:01S 41°21' E 174°34'815.3
2019-Jan-23 21:31S 41°17' E 174°25'713.2
2019-Jan-23 21:00S 41°13' E 174°18'612.1
2019-Jan-23 20:30S 41°15' E 174°10'612.2
2019-Jan-23 20:00S 41°15' E 174°02'2 4.0
2019-Jan-23 19:30S 41°17' E 174°00'0 0.0
2019-Jan-23 19:00S 41°17' E 174°00'0 0.0
2019-Jan-23 18:30S 41°17' E 174°00'0 0.0
2019-Jan-23 18:00S 41°17' E 174°00'2 4.3
2019-Jan-23 17:31S 41°15' E 174°02'611.8
2019-Jan-23 17:01S 41°15' E 174°10'713.9
2019-Jan-23 16:31S 41°13' E 174°18'917.7
2019-Jan-23 16:00S 41°17' E 174°28'815.2
2019-Jan-23 15:31S 41°21' E 174°37'815.1
2019-Jan-23 15:00S 41°22' E 174°47'611.3
2019-Jan-23 14:27S 41°16' E 174°48'1 0.3
2019-Jan-23 12:23S 41°16' E 174°47'610.8
2019-Jan-23 11:50S 41°22' E 174°50'514.9
2019-Jan-23 11:31S 41°23' E 174°44'815.6
2019-Jan-23 11:01S 41°21' E 174°34'815.3
2019-Jan-23 10:31S 41°17' E 174°26'714.1
2019-Jan-23 10:01S 41°13' E 174°18'713.6
2019-Jan-23 09:30S 41°15' E 174°09'612.2
2019-Jan-23 09:00S 41°16' E 174°01'2 3.0
2019-Jan-23 08:29S 41°17' E 174°00'0 0.0
2019-Jan-23 07:59S 41°17' E 174°00'0 0.0
2019-Jan-23 07:29S 41°17' E 174°00'0 0.3
2019-Jan-23 06:59S 41°17' E 174°01'4 9.3
2019-Jan-23 06:30S 41°14' E 174°05'612.3
2019-Jan-23 06:00S 41°14' E 174°13'714.4
2019-Jan-23 05:30S 41°15' E 174°23'917.1
2019-Jan-23 05:00S 41°19' E 174°32'917.2
2019-Jan-23 04:30S 41°23' E 174°43'814.9
2019-Jan-23 03:58S 41°17' E 174°51'3 0.6
2019-Jan-22 23:18S 41°16' E 174°47'311.0
2019-Jan-22 23:00S 41°17' E 174°51'714.8
2019-Jan-22 22:30S 41°24' E 174°47'816.2
2019-Jan-22 22:00S 41°22' E 174°36'816.8
2019-Jan-22 21:30S 41°17' E 174°27'816.2
2019-Jan-22 21:00S 41°13' E 174°17'612.4
2019-Jan-22 20:30S 41°14' E 174°09'612.8
2019-Jan-22 20:00S 41°16' E 174°01'1 1.9
2019-Jan-22 19:29S 41°17' E 174°00'0 0.0
2019-Jan-22 18:59S 41°17' E 174°00'0 0.0
2019-Jan-22 18:29S 41°17' E 174°00'0 0.0
2019-Jan-22 17:59S 41°17' E 174°00'2 4.0
2019-Jan-22 17:30S 41°15' E 174°02'612.4
2019-Jan-22 17:01S 41°15' E 174°10'714.8
2019-Jan-22 16:30S 41°13' E 174°19'917.6
2019-Jan-22 16:00S 41°18' E 174°29'713.9
2019-Jan-22 15:30S 41°21' E 174°37'815.3
2019-Jan-22 15:00S 41°22' E 174°47'612.2
2019-Jan-22 14:30S 41°17' E 174°49'2 0.8
2019-Jan-22 12:22S 41°16' E 174°47'411.0
2019-Jan-22 11:59S 41°19' E 174°51'613.0
2019-Jan-22 11:31S 41°23' E 174°45'917.1
2019-Jan-22 11:01S 41°21' E 174°34'816.1
2019-Jan-22 10:31S 41°17' E 174°25'714.0
2019-Jan-22 10:01S 41°13' E 174°17'612.5
2019-Jan-22 09:31S 41°14' E 174°09'713.7
2019-Jan-22 09:01S 41°17' E 174°01'0 0.9
2019-Jan-22 08:31S 41°17' E 174°00'0 0.0
2019-Jan-22 08:01S 41°17' E 174°00'0 0.0
2019-Jan-22 07:31S 41°17' E 174°00'0 0.1
2019-Jan-22 07:00S 41°17' E 174°00'5 9.4
2019-Jan-22 06:31S 41°14' E 174°05'713.2
2019-Jan-22 06:01S 41°14' E 174°14'714.4
2019-Jan-22 05:31S 41°15' E 174°24'816.1
2019-Jan-22 05:01S 41°19' E 174°33'917.7
2019-Jan-22 04:31S 41°23' E 174°43'814.3
2019-Jan-22 03:58S 41°18' E 174°51'3 0.7
2019-Jan-21 23:11S 41°16' E 174°47'1 8.2
2019-Jan-21 23:00S 41°16' E 174°49'714.4
2019-Jan-21 22:30S 41°23' E 174°49'917.9
2019-Jan-21 22:01S 41°22' E 174°37'917.8
2019-Jan-21 21:31S 41°17' E 174°27'816.5
2019-Jan-21 21:01S 41°13' E 174°18'713.6
2019-Jan-21 20:30S 41°14' E 174°09'612.6
2019-Jan-21 20:00S 41°16' E 174°01'1 2.0
2019-Jan-21 19:30S 41°17' E 174°00'0 0.0
2019-Jan-21 19:00S 41°17' E 174°00'0 0.0
2019-Jan-21 18:30S 41°17' E 174°00'0 0.0
2019-Jan-21 18:00S 41°17' E 174°00'0 0.3
2019-Jan-21 17:31S 41°17' E 174°01'511.0
2019-Jan-21 17:01S 41°14' E 174°07'713.4
2019-Jan-21 16:31S 41°14' E 174°15'714.2
2019-Jan-21 16:01S 41°16' E 174°25'815.6
2019-Jan-21 15:31S 41°20' E 174°33'816.3
2019-Jan-21 15:01S 41°23' E 174°43'812.0
2019-Jan-21 14:21S 41°17' E 174°50'2 0.9
2019-Jan-21 12:16S 41°16' E 174°47'310.5
2019-Jan-21 12:00S 41°17' E 174°51'714.6
2019-Jan-21 11:30S 41°24' E 174°48'918.1
2019-Jan-21 11:00S 41°22' E 174°36'917.4
2019-Jan-21 10:30S 41°17' E 174°27'816.1
2019-Jan-21 10:00S 41°13' E 174°18'713.3
2019-Jan-21 09:31S 41°14' E 174°09'713.8
2019-Jan-21 09:00S 41°17' E 174°01'0 0.7
2019-Jan-21 08:30S 41°17' E 174°00'0 0.0
2019-Jan-21 08:00S 41°17' E 174°00'0 0.0
2019-Jan-21 07:30S 41°17' E 174°00'0 0.2
2019-Jan-21 07:00S 41°17' E 174°00'510.2
2019-Jan-21 06:30S 41°14' E 174°06'713.1
2019-Jan-21 06:00S 41°14' E 174°15'713.9
2019-Jan-21 05:30S 41°15' E 174°24'816.4
2019-Jan-21 05:00S 41°19' E 174°33'918.0
2019-Jan-21 04:30S 41°23' E 174°44'712.9
2019-Jan-21 03:56S 41°17' E 174°50'2 0.6
2019-Jan-21 01:06S 41°16' E 174°48'1 6.8
2019-Jan-21 00:56S 41°16' E 174°49'613.6
2019-Jan-21 00:30S 41°22' E 174°50'816.8
2019-Jan-21 00:00S 41°23' E 174°39'1019.8
2019-Jan-20 23:30S 41°18' E 174°28'917.5
2019-Jan-20 23:01S 41°13' E 174°18'714.1
2019-Jan-20 22:31S 41°14' E 174°09'713.9
2019-Jan-20 22:00S 41°17' E 174°01'0 0.6
2019-Jan-20 21:30S 41°17' E 174°00'0 0.0
2019-Jan-20 21:00S 41°17' E 174°00'0 0.0
2019-Jan-20 20:30S 41°17' E 174°00'1 1.5
2019-Jan-20 20:00S 41°16' E 174°01'713.9
2019-Jan-20 19:31S 41°14' E 174°09'713.4
2019-Jan-20 19:01S 41°13' E 174°18'815.5
2019-Jan-20 18:30S 41°17' E 174°27'917.1
2019-Jan-20 18:00S 41°21' E 174°37'918.3
2019-Jan-20 17:30S 41°22' E 174°49'611.2
2019-Jan-20 16:57S 41°16' E 174°47'0 0.0
2019-Jan-20 14:55S 41°16' E 174°47'4 9.3
2019-Jan-20 14:28S 41°19' E 174°51'613.0
2019-Jan-20 14:01S 41°23' E 174°46'816.3
2019-Jan-20 13:30S 41°21' E 174°35'917.8
2019-Jan-20 13:01S 41°17' E 174°25'714.3
2019-Jan-20 12:30S 41°14' E 174°17'713.2
2019-Jan-20 12:00S 41°14' E 174°08'713.1
2019-Jan-20 11:31S 41°17' E 174°00'0 0.1
2019-Jan-20 11:00S 41°17' E 174°00'0 0.0
2019-Jan-20 10:30S 41°17' E 174°00'3 5.8
2019-Jan-20 10:01S 41°15' E 174°03'612.6
2019-Jan-20 09:30S 41°15' E 174°11'612.8
2019-Jan-20 09:00S 41°13' E 174°19'815.3
2019-Jan-20 08:30S 41°17' E 174°28'816.2
2019-Jan-20 08:00S 41°21' E 174°37'917.0
2019-Jan-20 07:30S 41°22' E 174°48'612.0
2019-Jan-20 06:59S 41°16' E 174°48'0 0.1
2019-Jan-20 05:42S 41°16' E 174°47'1 3.8
2019-Jan-20 05:26S 41°16' E 174°49'2 3.7
2019-Jan-20 04:58S 41°15' E 174°51'1 2.3
2019-Jan-20 04:29S 41°16' E 174°50'2 0.2
2019-Jan-19 20:01S 41°16' E 174°47'0 5.3
2019-Jan-19 19:59S 41°16' E 174°47'2 2.5
2019-Jan-19 19:12S 41°15' E 174°50'0 0.0
2019-Jan-19 16:42S 41°15' E 174°50'0 0.0
2019-Jan-19 16:07S 41°15' E 174°50'0 0.0
2019-Jan-19 15:55S 41°15' E 174°50'0 0.1
2019-Jan-19 15:30S 41°15' E 174°50'2 0.6
2019-Jan-19 12:26S 41°16' E 174°47'4 8.7
2019-Jan-19 11:57S 41°19' E 174°51'612.6
2019-Jan-19 11:30S 41°23' E 174°46'917.6
2019-Jan-19 11:00S 41°21' E 174°35'917.3
2019-Jan-19 10:30S 41°17' E 174°25'714.3
2019-Jan-19 10:00S 41°14' E 174°17'713.5
2019-Jan-19 09:30S 41°14' E 174°08'612.6
2019-Jan-19 09:00S 41°17' E 174°00'0 0.0
2019-Jan-19 08:31S 41°17' E 174°00'0 0.0
2019-Jan-19 08:00S 41°17' E 174°00'0 0.0
2019-Jan-19 07:30S 41°17' E 174°00'0 0.3
2019-Jan-19 07:00S 41°17' E 174°00'713.1
2019-Jan-19 06:30S 41°14' E 174°08'612.3
2019-Jan-19 06:00S 41°14' E 174°16'713.5
2019-Jan-19 05:30S 41°16' E 174°25'815.8
2019-Jan-19 05:00S 41°20' E 174°34'917.6
2019-Jan-19 04:30S 41°23' E 174°45'711.4
2019-Jan-19 03:53S 41°16' E 174°48'1 0.1
2019-Jan-18 23:00S 41°16' E 174°47'611.1
2019-Jan-18 22:28S 41°22' E 174°50'714.7
2019-Jan-18 22:00S 41°23' E 174°42'918.4
2019-Jan-18 21:30S 41°19' E 174°30'917.1
2019-Jan-18 21:00S 41°14' E 174°21'714.1
2019-Jan-18 20:30S 41°15' E 174°12'713.0
2019-Jan-18 20:00S 41°15' E 174°03'3 6.0
2019-Jan-18 19:30S 41°17' E 174°00'0 0.0
2019-Jan-18 19:00S 41°17' E 174°00'0 0.0
2019-Jan-18 18:30S 41°17' E 174°00'0 0.0
2019-Jan-18 18:00S 41°17' E 174°00'0 0.7
2019-Jan-18 17:31S 41°17' E 174°01'713.0
2019-Jan-18 17:00S 41°14' E 174°08'713.1
2019-Jan-18 16:30S 41°13' E 174°17'714.3
2019-Jan-18 16:00S 41°16' E 174°26'816.8
2019-Jan-18 15:30S 41°21' E 174°35'918.2
2019-Jan-18 15:00S 41°22' E 174°47'611.5
2019-Jan-18 14:27S 41°16' E 174°48'1 0.3
2019-Jan-18 12:17S 41°16' E 174°47'311.1
2019-Jan-18 12:00S 41°17' E 174°51'714.7
2019-Jan-18 11:30S 41°23' E 174°47'917.7
2019-Jan-18 11:00S 41°22' E 174°35'918.0
2019-Jan-18 10:30S 41°17' E 174°25'714.4
2019-Jan-18 10:00S 41°14' E 174°17'713.5
2019-Jan-18 09:30S 41°14' E 174°08'612.7
2019-Jan-18 09:00S 41°17' E 174°00'0 0.0
2019-Jan-18 08:30S 41°17' E 174°00'0 0.0
2019-Jan-18 08:00S 41°17' E 174°00'0 0.0
2019-Jan-18 07:30S 41°17' E 174°00'0 0.0
2019-Jan-18 07:00S 41°17' E 174°00'4 8.9
2019-Jan-18 06:31S 41°14' E 174°05'612.7
2019-Jan-18 06:00S 41°14' E 174°13'713.7
2019-Jan-18 05:31S 41°15' E 174°23'917.1
2019-Jan-18 05:00S 41°19' E 174°32'919.0
2019-Jan-18 04:31S 41°23' E 174°44'7 1.3
2019-Jan-17 22:58S 41°16' E 174°47'611.7
2019-Jan-17 22:28S 41°22' E 174°50'816.5
2019-Jan-17 22:00S 41°23' E 174°40'1019.9
2019-Jan-17 21:30S 41°18' E 174°29'917.6
2019-Jan-17 21:00S 41°13' E 174°19'815.6
2019-Jan-17 20:31S 41°15' E 174°09'612.3
2019-Jan-17 20:00S 41°16' E 174°01'1 2.8
2019-Jan-17 19:30S 41°17' E 174°00'0 0.0
2019-Jan-17 19:00S 41°17' E 174°00'0 0.0
2019-Jan-17 18:30S 41°17' E 174°00'0 0.0
2019-Jan-17 18:01S 41°17' E 174°00'1 2.2
2019-Jan-17 17:30S 41°16' E 174°01'713.1
2019-Jan-17 17:00S 41°14' E 174°09'713.4
2019-Jan-17 16:31S 41°13' E 174°18'917.2
2019-Jan-17 16:00S 41°17' E 174°28'1019.0
2019-Jan-17 15:30S 41°22' E 174°39'9 2.8
2019-Jan-17 12:13S 41°16' E 174°47'312.8
2019-Jan-17 12:00S 41°17' E 174°51'714.8
2019-Jan-17 11:30S 41°23' E 174°48'917.8
2019-Jan-17 11:01S 41°22' E 174°36'918.3
2019-Jan-17 10:30S 41°17' E 174°26'815.2
2019-Jan-17 10:01S 41°14' E 174°17'713.4
2019-Jan-17 09:30S 41°14' E 174°08'612.6
2019-Jan-17 09:00S 41°17' E 174°00'0 0.0
2019-Jan-17 08:30S 41°17' E 174°00'0 0.0
2019-Jan-17 08:00S 41°17' E 174°00'0 0.0
2019-Jan-17 07:30S 41°17' E 174°00'1 1.3
2019-Jan-17 07:01S 41°16' E 174°01'713.9
2019-Jan-17 06:31S 41°14' E 174°09'611.6
2019-Jan-17 06:01S 41°13' E 174°17'816.3
2019-Jan-17 05:31S 41°17' E 174°27'1019.5
2019-Jan-17 05:01S 41°22' E 174°38'1016.7
2019-Jan-17 04:23S 41°19' E 174°51'4 0.7
2019-Jan-16 23:01S 41°16' E 174°48'112.1
2019-Jan-16 22:59S 41°16' E 174°49'714.2
2019-Jan-16 22:30S 41°23' E 174°50'917.4
2019-Jan-16 22:00S 41°23' E 174°38'918.2
2019-Jan-16 21:30S 41°18' E 174°28'917.3
2019-Jan-16 21:01S 41°13' E 174°19'815.0
2019-Jan-16 20:30S 41°14' E 174°09'612.6
2019-Jan-16 20:00S 41°16' E 174°01'1 2.1
2019-Jan-16 19:28S 41°17' E 174°00'0 0.0
2019-Jan-16 18:58S 41°17' E 174°00'0 0.0
2019-Jan-16 18:28S 41°17' E 174°00'0 0.0
2019-Jan-16 18:00S 41°17' E 174°00'1 2.7
2019-Jan-16 17:31S 41°16' E 174°01'612.7
2019-Jan-16 17:01S 41°14' E 174°09'713.8
2019-Jan-16 16:31S 41°13' E 174°18'917.3
2019-Jan-16 16:00S 41°17' E 174°28'1019.1
2019-Jan-16 15:31S 41°22' E 174°39'910.6
2019-Jan-16 14:38S 41°16' E 174°48'1 0.3
2019-Jan-16 12:19S 41°16' E 174°47'411.0
2019-Jan-16 11:56S 41°19' E 174°51'613.7
2019-Jan-16 11:30S 41°23' E 174°46'816.9
2019-Jan-16 11:00S 41°21' E 174°35'817.0
2019-Jan-16 10:30S 41°17' E 174°26'714.8
2019-Jan-16 10:00S 41°13' E 174°17'612.5
2019-Jan-16 09:31S 41°14' E 174°09'713.5
2019-Jan-16 09:00S 41°17' E 174°01'0 0.6
2019-Jan-16 08:30S 41°17' E 174°00'0 0.0
2019-Jan-16 08:00S 41°17' E 174°00'0 0.0
2019-Jan-16 07:30S 41°17' E 174°00'0 0.0
2019-Jan-16 07:00S 41°17' E 174°00'4 8.8
2019-Jan-16 06:30S 41°14' E 174°05'612.5
2019-Jan-16 06:00S 41°14' E 174°13'713.7
2019-Jan-16 05:30S 41°14' E 174°22'1019.8
2019-Jan-16 05:00S 41°19' E 174°34'1019.2
2019-Jan-16 04:30S 41°23' E 174°46'712.1
2019-Jan-16 03:57S 41°16' E 174°48'0 0.1
2019-Jan-15 23:01S 41°16' E 174°48'0 7.3
2019-Jan-15 23:00S 41°16' E 174°48'612.0
2019-Jan-15 22:30S 41°22' E 174°50'816.7
2019-Jan-15 22:00S 41°23' E 174°39'917.8
2019-Jan-15 21:31S 41°19' E 174°29'918.1
2019-Jan-15 21:01S 41°13' E 174°20'815.0
2019-Jan-15 20:30S 41°15' E 174°10'612.4
2019-Jan-15 20:01S 41°15' E 174°02'2 3.4
2019-Jan-15 19:29S 41°17' E 174°00'0 0.0
2019-Jan-15 18:59S 41°17' E 174°00'0 0.0
2019-Jan-15 18:29S 41°17' E 174°00'0 0.0
2019-Jan-15 18:00S 41°17' E 174°00'3 5.4
2019-Jan-15 17:31S 41°15' E 174°02'612.2
2019-Jan-15 17:00S 41°15' E 174°10'714.2
2019-Jan-15 16:30S 41°13' E 174°20'918.1
2019-Jan-15 16:00S 41°18' E 174°30'1019.6
2019-Jan-15 15:30S 41°23' E 174°41'916.1
2019-Jan-15 14:57S 41°17' E 174°51'3 1.5
2019-Jan-15 13:00S 41°16' E 174°47'612.5
2019-Jan-15 12:30S 41°22' E 174°50'815.2
2019-Jan-15 12:00S 41°23' E 174°40'816.2
2019-Jan-15 11:30S 41°19' E 174°31'917.7
2019-Jan-15 11:00S 41°14' E 174°21'611.8
2019-Jan-15 10:30S 41°14' E 174°13'612.3
2019-Jan-15 10:01S 41°14' E 174°05'4 8.7
2019-Jan-15 09:30S 41°17' E 174°00'0 0.0
2019-Jan-15 09:01S 41°17' E 174°00'0 0.0
2019-Jan-15 08:30S 41°17' E 174°00'0 0.3
2019-Jan-15 08:00S 41°17' E 174°01'3 5.3
2019-Jan-15 07:30S 41°15' E 174°03'5 9.0
2019-Jan-15 07:00S 41°14' E 174°08'611.6
2019-Jan-15 06:30S 41°14' E 174°16'714.8
2019-Jan-15 06:00S 41°16' E 174°25'1019.6
2019-Jan-15 05:30S 41°22' E 174°36'815.3
2019-Jan-15 05:00S 41°24' E 174°45'813.7
2019-Jan-15 04:24S 41°16' E 174°49'1 0.2
2019-Jan-14 23:26S 41°16' E 174°47'611.9
2019-Jan-14 22:56S 41°22' E 174°50'818.1
2019-Jan-14 22:31S 41°27' E 174°43'917.1
2019-Jan-14 22:01S 41°22' E 174°34'918.9
2019-Jan-14 21:31S 41°16' E 174°24'713.9
2019-Jan-14 21:01S 41°14' E 174°15'612.7
2019-Jan-14 20:31S 41°14' E 174°06'510.5
2019-Jan-14 20:00S 41°17' E 174°00'0 0.0
2019-Jan-14 19:31S 41°17' E 174°00'0 0.0
2019-Jan-14 19:01S 41°17' E 174°00'0 0.0
2019-Jan-14 18:31S 41°17' E 174°00'0 0.6
2019-Jan-14 18:01S 41°17' E 174°01'713.4
2019-Jan-14 17:30S 41°14' E 174°08'611.6
2019-Jan-14 17:00S 41°14' E 174°16'715.0
2019-Jan-14 16:31S 41°16' E 174°25'1019.5
2019-Jan-14 16:00S 41°22' E 174°36'713.9
2019-Jan-14 15:30S 41°24' E 174°45'814.7
2019-Jan-14 14:59S 41°18' E 174°51'3 1.4
2019-Jan-14 12:47S 41°16' E 174°47'312.6
2019-Jan-14 12:30S 41°18' E 174°51'917.9
2019-Jan-14 12:00S 41°25' E 174°45'612.3
2019-Jan-14 11:31S 41°23' E 174°37'713.4
2019-Jan-14 11:01S 41°20' E 174°30'714.4
2019-Jan-14 10:31S 41°15' E 174°22'510.8
2019-Jan-14 10:01S 41°14' E 174°15'612.3
2019-Jan-14 09:30S 41°14' E 174°07'611.0
2019-Jan-14 08:59S 41°17' E 174°00'0 0.0
2019-Jan-14 08:29S 41°17' E 174°00'0 0.0
2019-Jan-14 07:59S 41°17' E 174°00'  

Dump ship's entire track history